sensor_id;sensor_type;location;lat;lon;timestamp;pressure;altitude;pressure_sealevel;temperature;humidity
10167;BME280;62970;53.130;8.244;2022-08-21T00:02:26;101693.56;;;14.57;57.80
10167;BME280;62970;53.130;8.244;2022-08-21T00:04:56;101689.25;;;14.55;58.46
10167;BME280;62970;53.130;8.244;2022-08-21T00:07:28;101688.47;;;14.51;57.99
10167;BME280;62970;53.130;8.244;2022-08-21T00:09:57;101684.16;;;14.49;58.16
10167;BME280;62970;53.130;8.244;2022-08-21T00:12:27;101676.38;;;14.46;58.25
10167;BME280;62970;53.130;8.244;2022-08-21T00:14:57;101678.22;;;14.42;58.58
10167;BME280;62970;53.130;8.244;2022-08-21T00:17:26;101676.53;;;14.40;58.42
10167;BME280;62970;53.130;8.244;2022-08-21T00:19:55;101673.97;;;14.36;58.32
10167;BME280;62970;53.130;8.244;2022-08-21T00:22:27;101669.72;;;14.32;58.47
10167;BME280;62970;53.130;8.244;2022-08-21T00:24:56;101669.78;;;14.29;58.79
10167;BME280;62970;53.130;8.244;2022-08-21T00:27:25;101673.34;;;14.27;58.88
10167;BME280;62970;53.130;8.244;2022-08-21T00:29:55;101671.66;;;14.24;58.51
10167;BME280;62970;53.130;8.244;2022-08-21T00:32:26;101659.50;;;14.22;59.02
10167;BME280;62970;53.130;8.244;2022-08-21T00:34:55;101666.53;;;14.20;58.80
10167;BME280;62970;53.130;8.244;2022-08-21T00:37:29;101665.78;;;14.15;59.11
10167;BME280;62970;53.130;8.244;2022-08-21T00:39:58;101667.59;;;14.13;58.81
10167;BME280;62970;53.130;8.244;2022-08-21T00:42:29;101663.28;;;14.10;58.79
10167;BME280;62970;53.130;8.244;2022-08-21T00:44:59;101660.69;;;14.09;59.03
10167;BME280;62970;53.130;8.244;2022-08-21T00:47:28;101662.47;;;14.07;59.05
10167;BME280;62970;53.130;8.244;2022-08-21T00:49:57;101655.56;;;14.04;59.46
10167;BME280;62970;53.130;8.244;2022-08-21T00:52:31;101647.75;;;14.01;59.26
10167;BME280;62970;53.130;8.244;2022-08-21T00:55:01;101660.88;;;14.01;59.08
10167;BME280;62970;53.130;8.244;2022-08-21T00:57:36;101663.56;;;13.98;59.31
10167;BME280;62970;53.130;8.244;2022-08-21T01:00:14;101665.41;;;13.94;59.34
10167;BME280;62970;53.130;8.244;2022-08-21T01:02:45;101658.44;;;13.93;59.57
10167;BME280;62970;53.130;8.244;2022-08-21T01:05:14;101661.09;;;13.92;59.64
10167;BME280;62970;53.130;8.244;2022-08-21T01:07:47;101651.53;;;13.89;59.35
10167;BME280;62970;53.130;8.244;2022-08-21T01:10:17;101655.97;;;13.87;59.55
10167;BME280;62970;53.130;8.244;2022-08-21T01:12:47;101658.66;;;13.84;59.18
10167;BME280;62970;53.130;8.244;2022-08-21T01:15:17;101661.31;;;13.83;59.66
10167;BME280;62970;53.130;8.244;2022-08-21T01:17:48;101657.00;;;13.80;59.50
10167;BME280;62970;53.130;8.244;2022-08-21T01:20:18;101654.41;;;13.79;59.50
10167;BME280;62970;53.130;8.244;2022-08-21T01:22:51;101663.16;;;13.78;59.63
10167;BME280;62970;53.130;8.244;2022-08-21T01:25:20;101657.97;;;13.76;59.81
10167;BME280;62970;53.130;8.244;2022-08-21T01:27:50;101666.72;;;13.75;59.56
10167;BME280;62970;53.130;8.244;2022-08-21T01:30:25;101662.41;;;13.73;59.49
10167;BME280;62970;53.130;8.244;2022-08-21T01:32:56;101665.94;;;13.71;59.54
10167;BME280;62970;53.130;8.244;2022-08-21T01:35:25;101662.47;;;13.69;59.55
10167;BME280;62970;53.130;8.244;2022-08-21T01:37:57;101663.41;;;13.67;60.06
10167;BME280;62970;53.130;8.244;2022-08-21T01:40:27;101665.22;;;13.65;59.90
10167;BME280;62970;53.130;8.244;2022-08-21T01:42:56;101664.34;;;13.63;60.07
10167;BME280;62970;53.130;8.244;2022-08-21T01:45:26;101662.66;;;13.60;60.06
10167;BME280;62970;53.130;8.244;2022-08-21T01:47:55;101664.44;;;13.58;59.96
10167;BME280;62970;53.130;8.244;2022-08-21T01:50:25;101662.75;;;13.56;60.22
10167;BME280;62970;53.130;8.244;2022-08-21T01:52:57;101662.78;;;13.54;60.31
10167;BME280;62970;53.130;8.244;2022-08-21T01:55:26;101659.38;;;13.51;60.21
10167;BME280;62970;53.130;8.244;2022-08-21T01:57:57;101657.69;;;13.48;59.87
10167;BME280;62970;53.130;8.244;2022-08-21T02:00:29;101662.09;;;13.46;59.92
10167;BME280;62970;53.130;8.244;2022-08-21T02:02:58;101669.13;;;13.44;60.14
10167;BME280;62970;53.130;8.244;2022-08-21T02:05:27;101662.16;;;13.43;60.44
10167;BME280;62970;53.130;8.244;2022-08-21T02:07:59;101658.72;;;13.41;60.47
10167;BME280;62970;53.130;8.244;2022-08-21T02:10:31;101649.94;;;13.44;60.24
10167;BME280;62970;53.130;8.244;2022-08-21T02:13:01;101650.69;;;13.49;60.18
10167;BME280;62970;53.130;8.244;2022-08-21T02:15:31;101646.22;;;13.54;60.60
10167;BME280;62970;53.130;8.244;2022-08-21T02:18:02;101645.28;;;13.56;60.42
10167;BME280;62970;53.130;8.244;2022-08-21T02:20:36;101641.72;;;13.59;60.65
10167;BME280;62970;53.130;8.244;2022-08-21T02:23:10;101640.78;;;13.61;60.56
10167;BME280;62970;53.130;8.244;2022-08-21T02:25:40;101642.47;;;13.64;60.33
10167;BME280;62970;53.130;8.244;2022-08-21T02:28:14;101644.25;;;13.63;60.15
10167;BME280;62970;53.130;8.244;2022-08-21T02:30:47;101635.53;;;13.63;60.45
10167;BME280;62970;53.130;8.244;2022-08-21T02:33:16;101635.59;;;13.60;60.15
10167;BME280;62970;53.130;8.244;2022-08-21T02:35:47;101637.38;;;13.58;60.44
10167;BME280;62970;53.130;8.244;2022-08-21T02:38:24;101639.22;;;13.54;60.41
10167;BME280;62970;53.130;8.244;2022-08-21T02:40:55;101636.59;;;13.54;60.59
10167;BME280;62970;53.130;8.244;2022-08-21T02:43:27;101632.28;;;13.52;60.63
10167;BME280;62970;53.130;8.244;2022-08-21T02:45:57;101626.25;;;13.48;60.69
10167;BME280;62970;53.130;8.244;2022-08-21T02:48:29;101633.28;;;13.46;60.31
10167;BME280;62970;53.130;8.244;2022-08-21T02:51:02;101624.59;;;13.44;60.17
10167;BME280;62970;53.130;8.244;2022-08-21T02:53:36;101621.22;;;13.39;60.29
10167;BME280;62970;53.130;8.244;2022-08-21T02:56:08;101613.41;;;13.36;60.42
10167;BME280;62970;53.130;8.244;2022-08-21T02:58:41;101615.22;;;13.34;60.46
10167;BME280;62970;53.130;8.244;2022-08-21T03:01:11;101615.25;;;13.32;60.90
10167;BME280;62970;53.130;8.244;2022-08-21T03:03:45;101616.16;;;13.30;61.00
10167;BME280;62970;53.130;8.244;2022-08-21T03:06:19;101614.44;;;13.29;60.88
10167;BME280;62970;53.130;8.244;2022-08-21T03:08:52;101614.50;;;13.26;60.59
10167;BME280;62970;53.130;8.244;2022-08-21T03:11:23;101614.50;;;13.26;60.96
10167;BME280;62970;53.130;8.244;2022-08-21T03:13:52;101627.56;;;13.27;61.05
10167;BME280;62970;53.130;8.244;2022-08-21T03:16:21;101638.88;;;13.29;61.06
10167;BME280;62970;53.130;8.244;2022-08-21T03:18:50;101626.63;;;13.31;60.62
10167;BME280;62970;53.130;8.244;2022-08-21T03:21:22;101618.75;;;13.31;60.57
10167;BME280;62970;53.130;8.244;2022-08-21T03:23:53;101619.66;;;13.30;60.73
10167;BME280;62970;53.130;8.244;2022-08-21T03:26:23;101625.78;;;13.29;60.67
10167;BME280;62970;53.130;8.244;2022-08-21T03:28:52;101623.22;;;13.26;60.52
10167;BME280;62970;53.130;8.244;2022-08-21T03:31:23;101619.00;;;13.21;60.70
10167;BME280;62970;53.130;8.244;2022-08-21T03:33:55;101615.59;;;13.16;60.98
10167;BME280;62970;53.130;8.244;2022-08-21T03:36:25;101612.22;;;13.11;61.22
10167;BME280;62970;53.130;8.244;2022-08-21T03:38:57;101612.31;;;13.06;61.21
10167;BME280;62970;53.130;8.244;2022-08-21T03:41:26;101597.56;;;13.02;61.27
10167;BME280;62970;53.130;8.244;2022-08-21T03:43:55;101603.72;;;12.99;61.27
10167;BME280;62970;53.130;8.244;2022-08-21T03:46:25;101605.53;;;12.96;61.45
10167;BME280;62970;53.130;8.244;2022-08-21T03:48:54;101611.72;;;12.92;61.29
10167;BME280;62970;53.130;8.244;2022-08-21T03:51:23;101617.03;;;12.89;61.54
10167;BME280;62970;53.130;8.244;2022-08-21T03:53:52;101604.06;;;12.83;61.73
10167;BME280;62970;53.130;8.244;2022-08-21T03:56:24;101600.63;;;12.81;61.13
10167;BME280;62970;53.130;8.244;2022-08-21T03:58:54;101605.06;;;12.77;61.88
10167;BME280;62970;53.130;8.244;2022-08-21T04:01:23;101605.97;;;12.74;61.67
10167;BME280;62970;53.130;8.244;2022-08-21T04:03:52;101608.66;;;12.71;61.70
10167;BME280;62970;53.130;8.244;2022-08-21T04:06:21;101604.34;;;12.69;62.08
10167;BME280;62970;53.130;8.244;2022-08-21T04:08:52;101610.50;;;12.66;61.81
10167;BME280;62970;53.130;8.244;2022-08-21T04:11:23;101604.44;;;12.63;61.73
10167;BME280;62970;53.130;8.244;2022-08-21T04:13:53;101612.34;;;12.61;61.87
10167;BME280;62970;53.130;8.244;2022-08-21T04:16:23;101607.09;;;12.60;62.02
10167;BME280;62970;53.130;8.244;2022-08-21T04:18:53;101609.72;;;12.57;61.79
10167;BME280;62970;53.130;8.244;2022-08-21T04:21:23;101621.97;;;12.55;61.98
10167;BME280;62970;53.130;8.244;2022-08-21T04:23:54;101618.56;;;12.51;62.09
10167;BME280;62970;53.130;8.244;2022-08-21T04:26:26;101617.72;;;12.49;62.26
10167;BME280;62970;53.130;8.244;2022-08-21T04:28:56;101619.47;;;12.49;61.92
10167;BME280;62970;53.130;8.244;2022-08-21T04:31:26;101621.25;;;12.47;62.06
10167;BME280;62970;53.130;8.244;2022-08-21T04:33:55;101621.25;;;12.47;62.35
10167;BME280;62970;53.130;8.244;2022-08-21T04:36:26;101624.75;;;12.45;62.54
10167;BME280;62970;53.130;8.244;2022-08-21T04:38:55;101625.63;;;12.46;62.45
10167;BME280;62970;53.130;8.244;2022-08-21T04:41:28;101630.00;;;12.45;62.36
10167;BME280;62970;53.130;8.244;2022-08-21T04:43:57;101625.59;;;12.48;62.65
10167;BME280;62970;53.130;8.244;2022-08-21T04:46:26;101629.06;;;12.50;62.62
10167;BME280;62970;53.130;8.244;2022-08-21T04:48:56;101631.63;;;12.51;62.66
10167;BME280;62970;53.130;8.244;2022-08-21T04:51:28;101635.09;;;12.53;62.28
10167;BME280;62970;53.130;8.244;2022-08-21T04:54:02;101635.03;;;12.58;62.32
10167;BME280;62970;53.130;8.244;2022-08-21T04:56:44;101635.00;;;12.61;62.46
10167;BME280;62970;53.130;8.244;2022-08-21T04:59:19;101635.81;;;12.64;62.08
10167;BME280;62970;53.130;8.244;2022-08-21T05:01:50;101632.25;;;12.68;62.52
10167;BME280;62970;53.130;8.244;2022-08-21T05:04:26;101638.28;;;12.72;62.59
10167;BME280;62970;53.130;8.244;2022-08-21T05:06:59;101642.56;;;12.76;62.18
10167;BME280;62970;53.130;8.244;2022-08-21T05:09:28;101637.22;;;12.82;62.44
10167;BME280;62970;53.130;8.244;2022-08-21T05:12:01;101644.97;;;12.88;62.43
10167;BME280;62970;53.130;8.244;2022-08-21T05:14:31;101642.03;;;13.03;62.60
10167;BME280;62970;53.130;8.244;2022-08-21T05:17:01;101643.25;;;13.29;62.78
10167;BME280;62970;53.130;8.244;2022-08-21T05:19:30;101638.09;;;13.64;62.36
10167;BME280;62970;53.130;8.244;2022-08-21T05:22:00;101641.59;;;14.03;62.20
10167;BME280;62970;53.130;8.244;2022-08-21T05:24:30;101643.88;;;14.51;61.68
10167;BME280;62970;53.130;8.244;2022-08-21T05:27:02;101642.28;;;15.09;61.17
10167;BME280;62970;53.130;8.244;2022-08-21T05:29:33;101645.50;;;15.79;60.64
10167;BME280;62970;53.130;8.244;2022-08-21T05:32:09;101638.69;;;16.53;60.00
10167;BME280;62970;53.130;8.244;2022-08-21T05:34:38;101635.09;;;17.27;58.84
10167;BME280;62970;53.130;8.244;2022-08-21T05:37:11;101635.94;;;17.96;57.83
10167;BME280;62970;53.130;8.244;2022-08-21T05:39:41;101632.19;;;18.64;56.39
10167;BME280;62970;53.130;8.244;2022-08-21T05:42:13;101634.66;;;19.27;55.64
10167;BME280;62970;53.130;8.244;2022-08-21T05:44:42;101631.75;;;19.88;54.88
10167;BME280;62970;53.130;8.244;2022-08-21T05:47:11;101619.13;;;20.46;53.56
10167;BME280;62970;53.130;8.244;2022-08-21T05:49:41;101624.19;;;21.01;53.08
10167;BME280;62970;53.130;8.244;2022-08-21T05:52:10;101622.28;;;21.52;52.19
10167;BME280;62970;53.130;8.244;2022-08-21T05:54:39;101630.91;;;22.03;51.11
10167;BME280;62970;53.130;8.244;2022-08-21T05:57:13;101621.72;;;22.52;51.04
10167;BME280;62970;53.130;8.244;2022-08-21T05:59:45;101629.47;;;23.00;50.00
10167;BME280;62970;53.130;8.244;2022-08-21T06:02:16;101631.94;;;23.45;49.38
10167;BME280;62970;53.130;8.244;2022-08-21T06:04:47;101622.00;;;23.88;48.32
10167;BME280;62970;53.130;8.244;2022-08-21T06:07:17;101612.09;;;24.30;47.97
10167;BME280;62970;53.130;8.244;2022-08-21T06:09:46;101608.09;;;24.75;47.64
10167;BME280;62970;53.130;8.244;2022-08-21T06:12:18;101618.38;;;25.18;46.49
10167;BME280;62970;53.130;8.244;2022-08-21T06:14:49;101613.56;;;25.60;46.24
10167;BME280;62970;53.130;8.244;2022-08-21T06:17:19;101614.06;;;26.01;45.38
10167;BME280;62970;53.130;8.244;2022-08-21T06:19:54;101608.25;;;26.42;45.42
10167;BME280;62970;53.130;8.244;2022-08-21T06:22:24;101608.41;;;26.86;44.21
10167;BME280;62970;53.130;8.244;2022-08-21T06:24:53;101617.38;;;27.29;42.98
10167;BME280;62970;53.130;8.244;2022-08-21T06:27:24;101611.22;;;27.72;42.79
10167;BME280;62970;53.130;8.244;2022-08-21T06:29:54;101610.41;;;28.13;41.64
10167;BME280;62970;53.130;8.244;2022-08-21T06:32:23;101616.09;;;28.52;41.37
10167;BME280;62970;53.130;8.244;2022-08-21T06:34:53;101612.06;;;28.88;40.42
10167;BME280;62970;53.130;8.244;2022-08-21T06:37:22;101612.88;;;29.19;39.81
10167;BME280;62970;53.130;8.244;2022-08-21T06:39:51;101615.91;;;29.45;39.41
10167;BME280;62970;53.130;8.244;2022-08-21T06:42:24;101621.91;;;29.77;38.58
10167;BME280;62970;53.130;8.244;2022-08-21T06:44:54;101617.94;;;30.10;38.10
10167;BME280;62970;53.130;8.244;2022-08-21T06:47:23;101618.78;;;30.40;37.84
10167;BME280;62970;53.130;8.244;2022-08-21T06:49:52;101606.94;;;30.70;37.25
10167;BME280;62970;53.130;8.244;2022-08-21T06:52:22;101610.41;;;30.99;36.49
10167;BME280;62970;53.130;8.244;2022-08-21T06:54:52;101613.50;;;31.32;35.83
10167;BME280;62970;53.130;8.244;2022-08-21T06:57:24;101615.00;;;31.62;35.41
10167;BME280;62970;53.130;8.244;2022-08-21T06:59:53;101616.09;;;31.87;34.84
10167;BME280;62970;53.130;8.244;2022-08-21T07:02:22;101613.13;;;32.16;34.45
10167;BME280;62970;53.130;8.244;2022-08-21T07:04:54;101605.91;;;32.42;34.13
10167;BME280;62970;53.130;8.244;2022-08-21T07:07:25;101598.16;;;32.73;33.74
10167;BME280;62970;53.130;8.244;2022-08-21T07:09:56;101601.19;;;33.04;33.11
10167;BME280;62970;53.130;8.244;2022-08-21T07:12:29;101609.06;;;33.31;32.76
10167;BME280;62970;53.130;8.244;2022-08-21T07:14:58;101604.06;;;33.53;31.92
10167;BME280;62970;53.130;8.244;2022-08-21T07:17:27;101605.28;;;33.75;31.37
10167;BME280;62970;53.130;8.244;2022-08-21T07:19:58;101605.97;;;33.93;31.12
10167;BME280;62970;53.130;8.244;2022-08-21T07:22:27;101612.38;;;34.16;30.80
10167;BME280;62970;53.130;8.244;2022-08-21T07:24:56;101605.63;;;34.37;30.16
10167;BME280;62970;53.130;8.244;2022-08-21T07:27:29;101604.22;;;34.57;30.58
10167;BME280;62970;53.130;8.244;2022-08-21T07:29:59;101609.56;;;34.81;29.75
10167;BME280;62970;53.130;8.244;2022-08-21T07:32:29;101604.25;;;34.96;29.44
10167;BME280;62970;53.130;8.244;2022-08-21T07:34:59;101612.13;;;35.14;28.99
10167;BME280;62970;53.130;8.244;2022-08-21T07:37:29;101606.69;;;35.22;28.73
10167;BME280;62970;53.130;8.244;2022-08-21T07:39:58;101615.63;;;35.31;28.20
10167;BME280;62970;53.130;8.244;2022-08-21T07:42:31;101615.22;;;35.42;28.50
10167;BME280;62970;53.130;8.244;2022-08-21T07:45:01;101612.63;;;35.48;27.93
10167;BME280;62970;53.130;8.244;2022-08-21T07:47:30;101618.34;;;35.53;27.17
10167;BME280;62970;53.130;8.244;2022-08-21T07:49:59;101612.56;;;35.56;27.46
10167;BME280;62970;53.130;8.244;2022-08-21T07:52:29;101613.94;;;35.60;27.13
10167;BME280;62970;53.130;8.244;2022-08-21T07:55:00;101611.88;;;35.63;26.92
10167;BME280;62970;53.130;8.244;2022-08-21T07:57:32;101608.31;;;35.62;26.80
10167;BME280;62970;53.130;8.244;2022-08-21T08:00:03;101612.41;;;35.58;26.29
10167;BME280;62970;53.130;8.244;2022-08-21T08:02:36;101611.38;;;35.59;25.83
10167;BME280;62970;53.130;8.244;2022-08-21T08:05:09;101614.81;;;35.53;26.41
10167;BME280;62970;53.130;8.244;2022-08-21T08:07:40;101612.81;;;35.47;26.16
10167;BME280;62970;53.130;8.244;2022-08-21T08:10:10;101609.13;;;35.40;25.80
10167;BME280;62970;53.130;8.244;2022-08-21T08:12:44;101614.28;;;35.26;26.21
10167;BME280;62970;53.130;8.244;2022-08-21T08:15:17;101607.78;;;35.05;25.91
10167;BME280;62970;53.130;8.244;2022-08-21T08:17:47;101603.00;;;34.67;26.03
10167;BME280;62970;53.130;8.244;2022-08-21T08:20:18;101607.81;;;34.17;26.19
10167;BME280;62970;53.130;8.244;2022-08-21T08:22:49;101605.91;;;33.44;26.54
10167;BME280;62970;53.130;8.244;2022-08-21T08:25:21;101606.88;;;32.59;27.23
10167;BME280;62970;53.130;8.244;2022-08-21T08:27:55;101613.53;;;31.67;28.37
10167;BME280;62970;53.130;8.244;2022-08-21T08:30:24;101604.66;;;30.84;29.04
10167;BME280;62970;53.130;8.244;2022-08-21T08:32:53;101599.97;;;30.11;29.59
10167;BME280;62970;53.130;8.244;2022-08-21T08:35:23;101604.31;;;29.44;30.12
10167;BME280;62970;53.130;8.244;2022-08-21T08:37:54;101606.97;;;28.85;30.85
10167;BME280;62970;53.130;8.244;2022-08-21T08:40:32;101600.41;;;28.26;31.80
10167;BME280;62970;53.130;8.244;2022-08-21T08:43:11;101610.84;;;27.77;32.13
10167;BME280;62970;53.130;8.244;2022-08-21T08:45:45;101611.28;;;27.38;32.73
10167;BME280;62970;53.130;8.244;2022-08-21T08:48:35;101607.22;;;27.01;33.48
10167;BME280;62970;53.130;8.244;2022-08-21T08:51:17;101612.66;;;26.66;33.81
10167;BME280;62970;53.130;8.244;2022-08-21T08:53:54;101614.88;;;26.37;34.10
10167;BME280;62970;53.130;8.244;2022-08-21T08:56:30;101617.63;;;26.13;34.62
10167;BME280;62970;53.130;8.244;2022-08-21T08:59:09;101610.03;;;25.96;34.88
10167;BME280;62970;53.130;8.244;2022-08-21T09:01:42;101610.19;;;25.81;34.86
10167;BME280;62970;53.130;8.244;2022-08-21T09:04:15;101608.44;;;25.69;34.77
10167;BME280;62970;53.130;8.244;2022-08-21T09:07:12;101609.31;;;25.57;35.48
10167;BME280;62970;53.130;8.244;2022-08-21T09:10:10;101604.88;;;25.45;35.63
10167;BME280;62970;53.130;8.244;2022-08-21T09:12:52;101604.81;;;25.34;35.39
10167;BME280;62970;53.130;8.244;2022-08-21T09:15:33;101605.59;;;25.23;35.51
10167;BME280;62970;53.130;8.244;2022-08-21T09:18:31;101605.25;;;25.15;35.48
10167;BME280;62970;53.130;8.244;2022-08-21T09:21:17;101603.03;;;25.09;35.65
10167;BME280;62970;53.130;8.244;2022-08-21T09:23:57;101598.47;;;24.98;35.71
10167;BME280;62970;53.130;8.244;2022-08-21T09:26:40;101595.28;;;24.93;36.00
10167;BME280;62970;53.130;8.244;2022-08-21T09:29:16;101594.41;;;24.93;36.43
10167;BME280;62970;53.130;8.244;2022-08-21T09:31:51;101587.28;;;24.93;36.02
10167;BME280;62970;53.130;8.244;2022-08-21T09:34:26;101589.41;;;24.88;36.15
10167;BME280;62970;53.130;8.244;2022-08-21T09:36:57;101593.47;;;24.81;36.43
10167;BME280;62970;53.130;8.244;2022-08-21T09:39:30;101591.34;;;24.73;36.18
10167;BME280;62970;53.130;8.244;2022-08-21T09:42:02;101591.88;;;24.66;36.62
10167;BME280;62970;53.130;8.244;2022-08-21T09:44:35;101589.63;;;24.60;37.22
10167;BME280;62970;53.130;8.244;2022-08-21T09:47:10;101591.75;;;24.54;36.65
10167;BME280;62970;53.130;8.244;2022-08-21T09:49:42;101591.22;;;24.49;36.63
10167;BME280;62970;53.130;8.244;2022-08-21T09:52:19;101591.00;;;24.40;36.59
10167;BME280;62970;53.130;8.244;2022-08-21T09:54:52;101586.00;;;24.35;36.47
10167;BME280;62970;53.130;8.244;2022-08-21T09:57:26;101580.66;;;24.35;36.90
10167;BME280;62970;53.130;8.244;2022-08-21T10:00:20;101583.13;;;24.38;37.00
10167;BME280;62970;53.130;8.244;2022-08-21T10:02:54;101581.00;;;24.43;36.55
10167;BME280;62970;53.130;8.244;2022-08-21T10:05:26;101577.69;;;24.52;36.88
10167;BME280;62970;53.130;8.244;2022-08-21T10:07:58;101583.38;;;24.61;36.40
10167;BME280;62970;53.130;8.244;2022-08-21T10:10:36;101580.91;;;24.70;36.48
10167;BME280;62970;53.130;8.244;2022-08-21T10:13:15;101585.69;;;24.78;36.25
10167;BME280;62970;53.130;8.244;2022-08-21T10:16:02;101580.88;;;24.83;36.27
10167;BME280;62970;53.130;8.244;2022-08-21T10:18:41;101584.19;;;24.86;36.40
10167;BME280;62970;53.130;8.244;2022-08-21T10:21:17;101579.50;;;24.90;36.09
10167;BME280;62970;53.130;8.244;2022-08-21T10:24:00;101583.97;;;24.90;36.14
10167;BME280;62970;53.130;8.244;2022-08-21T10:26:45;101580.34;;;24.91;35.91
10167;BME280;62970;53.130;8.244;2022-08-21T10:29:36;101569.56;;;24.92;35.76
10167;BME280;62970;53.130;8.244;2022-08-21T10:32:22;101568.59;;;24.93;36.19
10167;BME280;62970;53.130;8.244;2022-08-21T10:35:06;101570.41;;;24.93;36.21
10167;BME280;62970;53.130;8.244;2022-08-21T10:37:49;101575.84;;;24.91;35.74
10167;BME280;62970;53.130;8.244;2022-08-21T10:40:27;101570.53;;;24.91;36.18
10167;BME280;62970;53.130;8.244;2022-08-21T10:43:08;101565.09;;;24.93;35.51
10167;BME280;62970;53.130;8.244;2022-08-21T10:45:55;101559.53;;;24.96;36.02
10167;BME280;62970;53.130;8.244;2022-08-21T10:48:32;101562.94;;;24.98;35.95
10167;BME280;62970;53.130;8.244;2022-08-21T10:51:13;101557.16;;;25.04;36.44
10167;BME280;62970;53.130;8.244;2022-08-21T10:53:59;101560.00;;;25.13;36.41
10167;BME280;62970;53.130;8.244;2022-08-21T10:56:36;101564.78;;;25.21;36.02
10167;BME280;62970;53.130;8.244;2022-08-21T10:59:20;101553.06;;;25.24;36.41
10167;BME280;62970;53.130;8.244;2022-08-21T11:02:00;101565.66;;;25.22;35.41
10167;BME280;62970;53.130;8.244;2022-08-21T11:04:56;101571.00;;;25.09;35.55
10167;BME280;62970;53.130;8.244;2022-08-21T11:07:36;101572.97;;;24.94;35.81
10167;BME280;62970;53.130;8.244;2022-08-21T11:10:14;101569.25;;;24.84;36.06
10167;BME280;62970;53.130;8.244;2022-08-21T11:12:50;101557.97;;;24.80;35.60
10167;BME280;62970;53.130;8.244;2022-08-21T11:15:34;101570.66;;;24.77;36.10
10167;BME280;62970;53.130;8.244;2022-08-21T11:18:23;101568.09;;;24.75;36.11
10167;BME280;62970;53.130;8.244;2022-08-21T11:21:15;101562.78;;;24.75;36.26
10167;BME280;62970;53.130;8.244;2022-08-21T11:23:59;101564.47;;;24.76;36.03
10167;BME280;62970;53.130;8.244;2022-08-21T11:26:37;101567.13;;;24.76;35.84
10167;BME280;62970;53.130;8.244;2022-08-21T11:29:16;101560.75;;;24.79;36.36
10167;BME280;62970;53.130;8.244;2022-08-21T11:31:59;101562.22;;;24.83;36.32
10167;BME280;62970;53.130;8.244;2022-08-21T11:34:51;101564.66;;;24.86;35.68
10167;BME280;62970;53.130;8.244;2022-08-21T11:37:48;101560.59;;;24.93;35.90
10167;BME280;62970;53.130;8.244;2022-08-21T11:40:40;101569.13;;;24.98;35.88
10167;BME280;62970;53.130;8.244;2022-08-21T11:43:20;101558.22;;;25.01;35.64
10167;BME280;62970;53.130;8.244;2022-08-21T11:45:54;101567.19;;;25.00;36.04
10167;BME280;62970;53.130;8.244;2022-08-21T11:48:36;101566.56;;;24.97;35.51
10167;BME280;62970;53.130;8.244;2022-08-21T11:51:13;101567.75;;;24.93;35.51
10167;BME280;62970;53.130;8.244;2022-08-21T11:53:51;101549.94;;;24.93;35.85
10167;BME280;62970;53.130;8.244;2022-08-21T11:56:27;101565.38;;;25.01;35.71
10167;BME280;62970;53.130;8.244;2022-08-21T11:59:04;101565.78;;;25.07;35.55
10167;BME280;62970;53.130;8.244;2022-08-21T12:01:41;101559.50;;;25.08;35.29
10167;BME280;62970;53.130;8.244;2022-08-21T12:04:30;101560.97;;;25.12;34.93
10167;BME280;62970;53.130;8.244;2022-08-21T12:07:11;101565.22;;;25.15;35.31
10167;BME280;62970;53.130;8.244;2022-08-21T12:09:54;101550.19;;;25.14;35.37
10167;BME280;62970;53.130;8.244;2022-08-21T12:12:29;101552.97;;;25.12;35.32
10167;BME280;62970;53.130;8.244;2022-08-21T12:15:27;101562.91;;;25.10;34.80
10167;BME280;62970;53.130;8.244;2022-08-21T12:18:23;101564.09;;;25.06;35.31
10167;BME280;62970;53.130;8.244;2022-08-21T12:21:05;101555.56;;;25.01;35.18
10167;BME280;62970;53.130;8.244;2022-08-21T12:23:45;101561.13;;;24.98;35.40
10167;BME280;62970;53.130;8.244;2022-08-21T12:26:25;101555.25;;;24.93;35.22
10167;BME280;62970;53.130;8.244;2022-08-21T12:29:27;101555.19;;;24.82;35.17
10167;BME280;62970;53.130;8.244;2022-08-21T12:32:02;101559.47;;;24.72;35.58
10167;BME280;62970;53.130;8.244;2022-08-21T12:34:36;101552.97;;;24.63;35.21
10167;BME280;62970;53.130;8.244;2022-08-21T12:37:15;101552.09;;;24.50;35.43
10167;BME280;62970;53.130;8.244;2022-08-21T12:39:51;101553.50;;;24.43;35.90
10167;BME280;62970;53.130;8.244;2022-08-21T12:42:24;101552.84;;;24.39;35.44
10167;BME280;62970;53.130;8.244;2022-08-21T12:45:14;101553.59;;;24.41;35.45
10167;BME280;62970;53.130;8.244;2022-08-21T12:47:49;101545.28;;;24.46;35.68
10167;BME280;62970;53.130;8.244;2022-08-21T12:50:26;101547.72;;;24.49;36.11
10167;BME280;62970;53.130;8.244;2022-08-21T12:53:02;101547.50;;;24.52;35.40
10167;BME280;62970;53.130;8.244;2022-08-21T12:55:35;101544.75;;;24.53;35.64
10167;BME280;62970;53.130;8.244;2022-08-21T12:58:18;101539.41;;;24.53;35.03
10167;BME280;62970;53.130;8.244;2022-08-21T13:00:56;101531.63;;;24.50;35.05
10167;BME280;62970;53.130;8.244;2022-08-21T13:03:26;101532.69;;;24.48;35.25
10167;BME280;62970;53.130;8.244;2022-08-21T13:05:58;101525.97;;;24.42;34.93
10167;BME280;62970;53.130;8.244;2022-08-21T13:08:28;101520.25;;;24.36;34.91
10167;BME280;62970;53.130;8.244;2022-08-21T13:11:00;101526.63;;;24.33;35.24
10167;BME280;62970;53.130;8.244;2022-08-21T13:13:33;101527.59;;;24.32;35.37
10167;BME280;62970;53.130;8.244;2022-08-21T13:16:06;101528.22;;;24.36;35.48
10167;BME280;62970;53.130;8.244;2022-08-21T13:18:53;101519.91;;;24.40;35.88
10167;BME280;62970;53.130;8.244;2022-08-21T13:21:32;101517.66;;;24.47;35.41
10167;BME280;62970;53.130;8.244;2022-08-21T13:24:17;101520.97;;;24.50;35.26
10167;BME280;62970;53.130;8.244;2022-08-21T13:26:48;101517.97;;;24.55;34.86